createdAt,value
2023-11-25T00:01:15.764Z,99175.88
2023-11-25T00:03:43.103Z,99169.50
2023-11-25T00:06:10.895Z,99166.53
2023-11-25T00:08:38.180Z,99164.09
2023-11-25T00:11:14.335Z,99170.81
2023-11-25T00:13:45.808Z,99166.94
2023-11-25T00:16:12.893Z,99167.59
2023-11-25T00:18:40.000Z,99156.69
2023-11-25T00:21:07.232Z,99152.19
2023-11-25T00:23:34.398Z,99151.94
2023-11-25T00:26:01.464Z,99138.06
2023-11-25T00:28:28.701Z,99150.13
2023-11-25T00:30:55.771Z,99133.38
2023-11-25T00:33:22.974Z,99116.78
2023-11-25T00:35:50.215Z,99118.34
2023-11-25T00:38:17.514Z,99114.75
2023-11-25T00:40:44.730Z,99096.75
2023-11-25T00:43:13.198Z,99121.94
2023-11-25T00:45:40.342Z,99107.19
2023-11-25T00:48:08.419Z,99104.19
2023-11-25T00:50:35.686Z,99106.03
2023-11-25T00:53:02.745Z,99113.22
2023-11-25T00:55:31.161Z,99109.72
2023-11-25T00:57:59.195Z,99108.03
2023-11-25T01:00:28.117Z,99079.25
2023-11-25T01:02:58.007Z,99066.44
2023-11-25T01:05:25.566Z,99070.09
2023-11-25T01:07:53.109Z,99073.34
2023-11-25T01:10:20.581Z,99069.31
2023-11-25T01:12:47.802Z,99070.63
2023-11-25T01:15:16.584Z,99055.66
2023-11-25T01:17:43.799Z,99034.31
2023-11-25T01:20:11.801Z,99026.13
2023-11-25T01:22:40.461Z,99081.34
2023-11-25T01:25:08.262Z,99101.88
2023-11-25T01:27:36.973Z,99144.69
2023-11-25T01:30:10.160Z,99183.59
2023-11-25T01:32:37.511Z,99194.03
2023-11-25T01:35:06.522Z,99214.06
2023-11-25T01:37:33.728Z,99191.75
2023-11-25T01:40:01.027Z,99166.53
2023-11-25T01:42:28.409Z,99164.25
2023-11-25T01:44:55.602Z,99184.19
2023-11-25T01:47:22.965Z,99178.28
2023-11-25T01:49:50.481Z,99159.09
2023-11-25T01:52:18.919Z,99178.50
2023-11-25T01:54:46.082Z,99179.69
2023-11-25T01:57:14.137Z,99189.16
2023-11-25T01:59:41.397Z,99176.13
2023-11-25T02:02:08.919Z,99174.53
2023-11-25T02:04:36.347Z,99147.06
2023-11-25T02:07:04.032Z,99157.25
2023-11-25T02:09:31.098Z,99153.19
2023-11-25T02:12:03.484Z,99153.25
2023-11-25T02:14:30.862Z,99111.09
2023-11-25T02:16:58.541Z,99136.34
2023-11-25T02:19:26.266Z,99119.63
2023-11-25T02:21:54.220Z,99104.75
2023-11-25T02:24:21.440Z,99087.59
2023-11-25T02:26:49.586Z,99104.81
2023-11-25T02:29:16.770Z,99082.22
2023-11-25T02:31:44.293Z,99075.50
2023-11-25T02:34:11.911Z,99059.69
2023-11-25T02:36:39.956Z,99024.09
2023-11-25T02:39:07.237Z,99022.44
2023-11-25T02:41:36.606Z,99011.63
2023-11-25T02:44:04.161Z,98977.63
2023-11-25T02:46:31.291Z,98960.91
2023-11-25T02:48:58.400Z,98962.47
2023-11-25T02:51:25.860Z,98949.16
2023-11-25T02:53:53.047Z,98945.09
2023-11-25T02:56:22.038Z,98934.84
2023-11-25T02:58:50.002Z,98916.47
2023-11-25T03:01:17.959Z,98910.41
2023-11-25T03:03:49.834Z,98920.81
2023-11-25T03:06:22.079Z,98912.97
2023-11-25T03:08:49.997Z,98910.53
2023-11-25T03:11:23.619Z,98901.91
2023-11-25T03:13:50.735Z,98902.00
2023-11-25T03:16:26.289Z,98895.63
2023-11-25T03:18:53.581Z,98887.06
2023-11-25T03:21:21.509Z,98866.91
2023-11-25T03:23:48.807Z,98852.06
2023-11-25T03:26:16.610Z,98865.91
2023-11-25T03:28:44.538Z,98863.25
2023-11-25T03:31:13.849Z,98884.78
2023-11-25T03:33:42.158Z,98867.84
2023-11-25T03:36:09.403Z,98885.97
2023-11-25T03:38:37.287Z,98884.19
2023-11-25T03:41:04.389Z,98867.06
2023-11-25T03:43:31.510Z,98859.91
2023-11-25T03:46:00.038Z,98853.75
2023-11-25T03:48:27.240Z,98842.41
2023-11-25T03:50:54.376Z,98815.44
2023-11-25T03:53:21.652Z,98853.28
2023-11-25T03:55:48.759Z,98822.97
2023-11-25T03:58:15.851Z,98810.34
2023-11-25T04:00:43.046Z,98801.69
2023-11-25T04:03:10.372Z,98812.81
2023-11-25T04:05:37.482Z,98755.78
2023-11-25T04:08:04.801Z,98769.53
2023-11-25T04:10:31.955Z,98764.47
2023-11-25T04:12:59.768Z,98786.63
2023-11-25T04:15:27.578Z,98790.84
2023-11-25T04:17:55.447Z,98802.97
2023-11-25T04:20:26.368Z,98823.91
2023-11-25T04:22:54.907Z,98796.31
2023-11-25T04:25:22.824Z,98807.56
2023-11-25T04:27:50.557Z,98812.72
2023-11-25T04:30:18.447Z,98821.00
2023-11-25T04:32:47.823Z,98812.22
2023-11-25T04:35:15.476Z,98792.72
2023-11-25T04:37:47.815Z,98799.91
2023-11-25T04:40:15.599Z,98796.50
2023-11-25T04:42:43.383Z,98804.28
2023-11-25T04:45:17.085Z,98798.38
2023-11-25T04:47:47.858Z,98800.25
2023-11-25T04:50:15.940Z,98786.72
2023-11-25T04:52:46.602Z,98798.69
2023-11-25T04:55:14.320Z,98804.53
2023-11-25T04:57:41.991Z,98815.44
2023-11-25T05:00:14.657Z,98816.25
2023-11-25T05:02:45.941Z,98808.22
2023-11-25T05:05:14.394Z,98795.94
2023-11-25T05:07:42.328Z,98806.25
2023-11-25T05:10:11.586Z,98791.56
2023-11-25T05:12:40.490Z,98797.47
2023-11-25T05:15:10.505Z,98791.81
2023-11-25T05:17:37.949Z,98806.41
2023-11-25T05:20:06.527Z,98777.13
2023-11-25T05:22:34.109Z,98770.75
2023-11-25T05:25:01.205Z,98756.25
2023-11-25T05:27:28.452Z,98757.75
2023-11-25T05:29:55.665Z,98751.28
2023-11-25T05:32:24.197Z,98754.31
2023-11-25T05:34:51.748Z,98783.03
2023-11-25T05:37:20.677Z,98749.38
2023-11-25T05:39:49.107Z,98770.38
2023-11-25T05:42:20.246Z,98783.84
2023-11-25T05:44:47.387Z,98750.97
2023-11-25T05:47:14.442Z,98754.84
2023-11-25T05:49:42.554Z,98750.22
2023-11-25T05:52:10.316Z,98748.53
2023-11-25T05:54:37.398Z,98716.19
2023-11-25T05:57:04.504Z,98731.66
2023-11-25T05:59:31.567Z,98710.97
2023-11-25T06:01:58.694Z,98717.56
2023-11-25T06:04:25.923Z,98712.78
2023-11-25T06:06:53.053Z,98711.00
2023-11-25T06:09:20.140Z,98701.78
2023-11-25T06:11:47.316Z,98701.69
2023-11-25T06:14:16.571Z,98680.28
2023-11-25T06:16:43.835Z,98711.63
2023-11-25T06:19:12.001Z,98722.94
2023-11-25T06:21:41.141Z,98719.66
2023-11-25T06:24:09.388Z,98745.59
2023-11-25T06:26:36.849Z,98729.34
2023-11-25T06:29:04.241Z,98766.88
2023-11-25T06:31:33.117Z,98726.63
2023-11-25T06:34:02.350Z,98736.25
2023-11-25T06:36:29.489Z,98751.53
2023-11-25T06:38:56.620Z,98750.56
2023-11-25T06:41:26.809Z,98758.13
2023-11-25T06:43:54.578Z,98746.91
2023-11-25T06:46:24.280Z,98742.88
2023-11-25T06:48:53.612Z,98736.66
2023-11-25T06:51:20.679Z,98749.06
2023-11-25T06:53:47.849Z,98756.31
2023-11-25T06:56:18.475Z,98746.53
2023-11-25T06:58:47.257Z,98733.34
2023-11-25T07:01:20.609Z,98743.63
2023-11-25T07:03:48.058Z,98740.41
2023-11-25T07:06:18.130Z,98743.78
2023-11-25T07:08:48.498Z,98759.59
2023-11-25T07:11:15.701Z,98745.22
2023-11-25T07:13:43.630Z,98747.59
2023-11-25T07:16:13.608Z,98749.38
2023-11-25T07:18:47.224Z,98749.59
2023-11-25T07:21:15.806Z,98738.94
2023-11-25T07:23:44.226Z,98723.97
2023-11-25T07:26:14.308Z,98720.94
2023-11-25T07:28:41.597Z,98703.78
2023-11-25T07:31:10.860Z,98717.88
2023-11-25T07:33:38.172Z,98719.31
2023-11-25T07:36:05.835Z,98691.81
2023-11-25T07:38:32.942Z,98691.63
2023-11-25T07:41:01.471Z,98672.34
2023-11-25T07:43:30.333Z,98685.00
2023-11-25T07:45:57.809Z,98665.94
2023-11-25T07:48:24.910Z,98677.53
2023-11-25T07:50:52.423Z,98689.34
2023-11-25T07:53:24.398Z,98688.81
2023-11-25T07:55:52.638Z,98652.78
2023-11-25T07:58:20.540Z,98660.56
2023-11-25T08:00:47.826Z,98667.66
2023-11-25T08:03:15.099Z,98659.28
2023-11-25T08:05:42.330Z,98651.69
2023-11-25T08:08:09.409Z,98655.69
2023-11-25T08:10:36.924Z,98671.78
2023-11-25T08:13:04.098Z,98647.66
2023-11-25T08:15:33.067Z,98629.47
2023-11-25T08:18:00.555Z,98651.78
2023-11-25T08:20:28.181Z,98620.97
2023-11-25T08:22:55.428Z,98642.84
2023-11-25T08:25:22.978Z,98638.38
2023-11-25T08:27:51.608Z,98651.72
2023-11-25T08:30:18.794Z,98636.44
2023-11-25T08:32:47.290Z,98642.50
2023-11-25T08:35:14.530Z,98641.59
2023-11-25T08:37:41.914Z,98626.59
2023-11-25T08:40:23.336Z,98637.88
2023-11-25T08:42:51.095Z,98633.00
2023-11-25T08:45:18.189Z,98617.75
2023-11-25T08:47:45.978Z,98621.81
2023-11-25T08:50:17.741Z,98627.28
2023-11-25T08:52:47.929Z,98594.16
2023-11-25T08:55:19.436Z,98610.41
2023-11-25T08:57:47.486Z,98595.00
2023-11-25T09:00:21.519Z,98606.41
2023-11-25T09:02:52.841Z,98606.13
2023-11-25T09:05:24.215Z,98574.78
2023-11-25T09:07:58.541Z,98579.38
2023-11-25T09:10:26.971Z,98596.38
2023-11-25T09:12:54.749Z,98597.66
2023-11-25T09:15:22.912Z,98586.25
2023-11-25T09:17:50.212Z,98575.09
2023-11-25T09:20:18.236Z,98577.34
2023-11-25T09:22:46.536Z,98588.25
2023-11-25T09:25:14.033Z,98575.34
2023-11-25T09:27:45.725Z,98539.13
2023-11-25T09:30:14.705Z,98532.97
2023-11-25T09:32:42.908Z,98553.19
2023-11-25T09:35:13.461Z,98560.16
2023-11-25T09:37:41.318Z,98557.72
2023-11-25T09:40:15.901Z,98565.59
2023-11-25T09:42:44.831Z,98553.81
2023-11-25T09:45:12.860Z,98552.97
2023-11-25T09:47:41.325Z,98527.50
2023-11-25T09:50:12.212Z,98511.97
2023-11-25T09:52:54.757Z,98531.16
2023-11-25T09:55:24.515Z,98535.88
2023-11-25T09:58:00.251Z,98475.56
2023-11-25T10:00:28.911Z,98505.75
2023-11-25T10:02:58.887Z,98474.84
2023-11-25T10:05:26.330Z,98487.22
2023-11-25T10:07:53.497Z,98484.06
2023-11-25T10:10:27.668Z,98482.25
2023-11-25T10:12:54.936Z,98454.38
2023-11-25T10:15:23.523Z,98456.78
2023-11-25T10:17:53.753Z,98450.47
2023-11-25T10:20:24.244Z,98454.00
2023-11-25T10:22:55.390Z,98448.03
2023-11-25T10:25:23.039Z,98447.47
2023-11-25T10:27:52.891Z,98437.16
2023-11-25T10:30:22.173Z,98443.72
2023-11-25T10:32:51.473Z,98442.63
2023-11-25T10:35:20.289Z,98407.72
2023-11-25T10:37:47.741Z,98432.22
2023-11-25T10:40:18.438Z,98414.16
2023-11-25T10:42:46.942Z,98372.63
2023-11-25T10:45:17.800Z,98404.81
2023-11-25T10:47:45.562Z,98374.56
2023-11-25T10:50:14.872Z,98410.31
2023-11-25T10:52:45.008Z,98377.56
2023-11-25T10:55:12.222Z,98390.44
2023-11-25T10:57:39.582Z,98343.44
2023-11-25T11:00:14.025Z,98372.34
2023-11-25T11:02:56.055Z,98354.31
2023-11-25T11:05:29.522Z,98356.81
2023-11-25T11:08:03.447Z,98344.34
2023-11-25T11:10:43.572Z,98338.13
2023-11-25T11:13:12.774Z,98334.22
2023-11-25T11:15:40.305Z,98355.97
2023-11-25T11:18:14.759Z,98343.69
2023-11-25T11:20:47.694Z,98291.88
2023-11-25T11:23:17.317Z,98303.66
2023-11-25T11:25:56.984Z,98309.91
2023-11-25T11:28:29.643Z,98297.09
2023-11-25T11:31:15.543Z,98281.00
2023-11-25T11:33:42.725Z,98269.03
2023-11-25T11:36:21.024Z,98265.38
2023-11-25T11:38:48.312Z,98278.66
2023-11-25T11:41:19.024Z,98277.81
2023-11-25T11:44:11.353Z,98275.16
2023-11-25T11:46:43.901Z,98270.41
2023-11-25T11:49:13.548Z,98255.56
2023-11-25T11:52:04.152Z,98273.56
2023-11-25T11:54:31.552Z,98261.88
2023-11-25T11:57:15.732Z,98253.66
2023-11-25T12:00:02.873Z,98272.81
2023-11-25T12:02:32.848Z,98265.47
2023-11-25T12:05:01.164Z,98272.34
2023-11-25T12:07:29.099Z,98249.69
2023-11-25T12:09:57.212Z,98238.72
2023-11-25T12:12:25.053Z,98242.50
2023-11-25T12:14:54.364Z,98210.59
2023-11-25T12:17:22.675Z,98209.75
2023-11-25T12:19:53.718Z,98214.50
2023-11-25T12:22:20.906Z,98211.84
2023-11-25T12:24:47.996Z,98210.13
2023-11-25T12:27:16.524Z,98185.66
2023-11-25T12:29:43.661Z,98192.34
2023-11-25T12:32:11.203Z,98191.53
2023-11-25T12:34:38.528Z,98186.19
2023-11-25T12:37:05.782Z,98172.47
2023-11-25T12:39:32.849Z,98187.56
2023-11-25T12:42:03.517Z,98158.59
2023-11-25T12:44:51.588Z,98155.69
2023-11-25T12:47:18.895Z,98144.41
2023-11-25T12:49:46.704Z,98121.72
2023-11-25T12:52:21.438Z,98153.41
2023-11-25T12:54:50.890Z,98135.06
2023-11-25T12:57:19.410Z,98136.09
2023-11-25T12:59:47.567Z,98126.53
2023-11-25T13:02:14.965Z,98152.75
2023-11-25T13:04:50.665Z,98130.28
2023-11-25T13:07:34.731Z,98126.19
2023-11-25T13:10:04.174Z,98143.81
2023-11-25T13:12:33.076Z,98134.00
2023-11-25T13:15:00.435Z,98126.25
2023-11-25T13:17:27.730Z,98123.97
2023-11-25T13:19:57.170Z,98102.28
2023-11-25T13:22:24.222Z,98124.22
2023-11-25T13:24:51.736Z,98135.31
2023-11-25T13:27:19.093Z,98125.44
2023-11-25T13:29:46.246Z,98113.34
2023-11-25T13:32:15.168Z,98130.38
2023-11-25T13:34:42.454Z,98101.38
2023-11-25T13:37:09.672Z,98126.69
2023-11-25T13:39:37.226Z,98107.38
2023-11-25T13:42:06.306Z,98126.22
2023-11-25T13:44:33.499Z,98078.50
2023-11-25T13:47:01.453Z,98107.28
2023-11-25T13:49:31.186Z,98121.56
2023-11-25T13:51:59.036Z,98101.50
2023-11-25T13:54:30.369Z,98118.25
2023-11-25T13:56:57.828Z,98102.03
2023-11-25T13:59:25.281Z,98093.88
2023-11-25T14:01:52.737Z,98091.97
2023-11-25T14:04:20.805Z,98108.13
2023-11-25T14:06:51.429Z,98104.75
2023-11-25T14:09:19.356Z,98069.84
2023-11-25T14:11:46.639Z,98073.94
2023-11-25T14:14:14.060Z,98078.88
2023-11-25T14:16:41.611Z,98057.25
2023-11-25T14:19:08.795Z,98077.66
2023-11-25T14:21:35.864Z,98058.47
2023-11-25T14:24:02.960Z,98064.03
2023-11-25T14:26:30.111Z,98051.00
2023-11-25T14:28:57.234Z,98051.25
2023-11-25T14:31:24.467Z,98058.84
2023-11-25T14:33:51.626Z,98066.00
2023-11-25T14:36:18.831Z,98060.09
2023-11-25T14:38:47.936Z,98042.75
2023-11-25T14:41:21.525Z,98044.16
2023-11-25T14:43:48.822Z,98042.34
2023-11-25T14:46:16.408Z,98040.94
2023-11-25T14:48:43.705Z,98058.53
2023-11-25T14:51:10.944Z,98028.84
2023-11-25T14:53:40.866Z,98048.41
2023-11-25T14:56:08.203Z,98021.09
2023-11-25T14:58:35.912Z,98011.41
2023-11-25T15:01:03.116Z,98009.03
2023-11-25T15:03:30.273Z,97997.41
2023-11-25T15:05:57.657Z,97983.63
2023-11-25T15:08:24.784Z,97972.81
2023-11-25T15:10:52.005Z,97963.53
2023-11-25T15:13:19.251Z,97961.47
2023-11-25T15:15:48.107Z,97966.13
2023-11-25T15:18:15.815Z,97967.03
2023-11-25T15:20:43.072Z,97924.25
2023-11-25T15:23:10.280Z,97957.16
2023-11-25T15:25:37.427Z,97957.75
2023-11-25T15:28:07.425Z,97926.22
2023-11-25T15:30:35.405Z,97931.31
2023-11-25T15:33:02.608Z,97917.47
2023-11-25T15:35:29.948Z,97917.22
2023-11-25T15:37:57.377Z,97895.50
2023-11-25T15:40:24.763Z,97884.84
2023-11-25T15:42:51.964Z,97891.03
2023-11-25T15:45:19.256Z,97883.63
2023-11-25T15:47:47.035Z,97869.41
2023-11-25T15:50:16.383Z,97877.75
2023-11-25T15:52:43.677Z,97855.91
2023-11-25T15:55:12.887Z,97853.44
2023-11-25T15:57:40.479Z,97886.34
2023-11-25T16:00:15.371Z,97899.94
2023-11-25T16:02:43.897Z,97903.53
2023-11-25T16:05:15.579Z,97903.88
2023-11-25T16:07:43.199Z,97892.72
2023-11-25T16:10:11.684Z,97896.47
2023-11-25T16:12:39.581Z,97901.56
2023-11-25T16:15:10.485Z,97870.13
2023-11-25T16:17:38.800Z,97889.78
2023-11-25T16:20:07.216Z,97876.84
2023-11-25T16:22:34.366Z,97857.22
2023-11-25T16:25:01.587Z,97861.41
2023-11-25T16:27:28.872Z,97876.44
2023-11-25T16:29:56.464Z,97847.41
2023-11-25T16:32:23.890Z,97842.22
2023-11-25T16:34:51.445Z,97853.25
2023-11-25T16:37:18.736Z,97806.66
2023-11-25T16:39:46.974Z,97820.72
2023-11-25T16:42:14.089Z,97811.44
2023-11-25T16:44:41.239Z,97823.06
2023-11-25T16:47:08.334Z,97809.25
2023-11-25T16:49:41.643Z,97799.97
2023-11-25T16:52:10.636Z,97796.59
2023-11-25T16:54:37.945Z,97798.34
2023-11-25T16:57:05.022Z,97770.69
2023-11-25T16:59:33.578Z,97787.56
2023-11-25T17:02:00.714Z,97745.75
2023-11-25T17:04:27.979Z,97730.47
2023-11-25T17:06:56.317Z,97726.69
2023-11-25T17:09:24.629Z,97736.47
2023-11-25T17:11:51.939Z,97731.75
2023-11-25T17:14:19.341Z,97699.31
2023-11-25T17:16:47.096Z,97709.44
2023-11-25T17:19:15.601Z,97711.69
2023-11-25T17:21:42.855Z,97678.19
2023-11-25T17:24:10.581Z,97684.66
2023-11-25T17:26:37.785Z,97672.03
2023-11-25T17:29:04.971Z,97677.50
2023-11-25T17:31:32.490Z,97661.50
2023-11-25T17:33:59.648Z,97650.44
2023-11-25T17:36:26.822Z,97644.72
2023-11-25T17:38:53.906Z,97650.06
2023-11-25T17:41:21.435Z,97639.41
2023-11-25T17:43:48.692Z,97634.53
2023-11-25T17:46:16.044Z,97580.66
2023-11-25T17:48:43.223Z,97617.97
2023-11-25T17:51:10.310Z,97602.97
2023-11-25T17:53:37.474Z,97596.16
2023-11-25T17:56:05.113Z,97620.13
2023-11-25T17:58:32.202Z,97591.00
2023-11-25T18:00:59.326Z,97587.38
2023-11-25T18:03:26.508Z,97586.41
2023-11-25T18:05:53.640Z,97634.91
2023-11-25T18:08:20.697Z,97643.72
2023-11-25T18:10:47.880Z,97644.25
2023-11-25T18:13:15.002Z,97649.44
2023-11-25T18:15:44.118Z,97623.53
2023-11-25T18:18:11.839Z,97631.06
2023-11-25T18:20:39.025Z,97635.56
2023-11-25T18:23:06.117Z,97620.41
2023-11-25T18:25:33.456Z,97616.78
2023-11-25T18:28:00.938Z,97602.88
2023-11-25T18:30:28.527Z,97613.97
2023-11-25T18:32:55.753Z,97600.81
2023-11-25T18:35:22.944Z,97578.50
2023-11-25T18:37:50.015Z,97594.50
2023-11-25T18:40:18.116Z,97590.56
2023-11-25T18:42:45.772Z,97605.72
2023-11-25T18:45:12.896Z,97593.69
2023-11-25T18:47:40.025Z,97597.75
2023-11-25T18:50:08.002Z,97602.38
2023-11-25T18:52:35.466Z,97591.31
2023-11-25T18:55:02.510Z,97599.72
2023-11-25T18:57:29.598Z,97560.88
2023-11-25T18:59:56.686Z,97576.19
2023-11-25T19:02:24.091Z,97564.28
2023-11-25T19:04:51.129Z,97528.41
2023-11-25T19:07:18.250Z,97568.63
2023-11-25T19:09:45.304Z,97548.88
2023-11-25T19:12:15.315Z,97541.16
2023-11-25T19:14:45.419Z,97533.16
2023-11-25T19:17:13.649Z,97551.50
2023-11-25T19:19:40.859Z,97537.38
2023-11-25T19:22:11.568Z,97539.88
2023-11-25T19:24:39.066Z,97546.63
2023-11-25T19:27:06.214Z,97575.09
2023-11-25T19:29:33.416Z,97578.88
2023-11-25T19:32:00.581Z,97568.50
2023-11-25T19:34:27.712Z,97561.59
2023-11-25T19:36:54.723Z,97574.75
2023-11-25T19:39:22.476Z,97588.06
2023-11-25T19:41:49.541Z,97600.84
2023-11-25T19:44:16.951Z,97593.81
2023-11-25T19:46:44.051Z,97626.03
2023-11-25T19:49:14.356Z,97664.28
2023-11-25T19:51:42.020Z,97699.69
2023-11-25T19:54:09.097Z,97676.72
2023-11-25T19:56:39.119Z,97697.81
2023-11-25T19:59:07.649Z,97670.34
2023-11-25T20:01:36.715Z,97674.22
2023-11-25T20:04:04.133Z,97714.53
2023-11-25T20:06:31.173Z,97707.56
2023-11-25T20:08:58.694Z,97682.25
2023-11-25T20:11:25.711Z,97699.25
2023-11-25T20:13:52.776Z,97674.66
2023-11-25T20:16:19.850Z,97703.34
2023-11-25T20:18:46.915Z,97687.03
2023-11-25T20:21:14.078Z,97691.13
2023-11-25T20:23:42.407Z,97715.75
2023-11-25T20:26:09.613Z,97727.28
2023-11-25T20:28:37.110Z,97717.09
2023-11-25T20:31:04.477Z,97704.81
2023-11-25T20:33:31.593Z,97729.06
2023-11-25T20:35:58.784Z,97735.03
2023-11-25T20:38:25.903Z,97731.03
2023-11-25T20:40:53.071Z,97729.50
2023-11-25T20:43:20.315Z,97724.78
2023-11-25T20:45:47.532Z,97729.50
2023-11-25T20:48:14.624Z,97719.69
2023-11-25T20:50:42.045Z,97735.13
2023-11-25T20:53:09.283Z,97723.03
2023-11-25T20:55:36.507Z,97701.91
2023-11-25T20:58:03.613Z,97726.38
2023-11-25T21:00:32.656Z,97711.38
2023-11-25T21:03:00.081Z,97704.66
2023-11-25T21:05:27.524Z,97734.38
2023-11-25T21:07:54.583Z,97730.38
2023-11-25T21:10:21.740Z,97749.94
2023-11-25T21:12:49.135Z,97736.25
2023-11-25T21:15:16.392Z,97727.91
2023-11-25T21:17:43.681Z,97751.50
2023-11-25T21:20:11.305Z,97753.31
2023-11-25T21:22:38.537Z,97768.22
2023-11-25T21:25:07.189Z,97777.00
2023-11-25T21:27:38.820Z,97758.28
2023-11-25T21:30:06.689Z,97753.38
2023-11-25T21:32:33.749Z,97788.16
2023-11-25T21:35:01.012Z,97774.09
2023-11-25T21:37:28.238Z,97779.41
2023-11-25T21:39:58.171Z,97763.66
2023-11-25T21:42:28.894Z,97763.56
2023-11-25T21:44:56.068Z,97807.22
2023-11-25T21:47:23.315Z,97772.03
2023-11-25T21:49:50.455Z,97786.22
2023-11-25T21:52:17.795Z,97802.09
2023-11-25T21:54:44.881Z,97807.06
2023-11-25T21:57:12.192Z,97804.38
2023-11-25T21:59:39.457Z,97838.38
2023-11-25T22:02:06.759Z,97850.69
2023-11-25T22:04:33.983Z,97863.03
2023-11-25T22:07:04.339Z,97863.44
2023-11-25T22:09:32.063Z,97863.34
2023-11-25T22:11:59.496Z,97891.38
2023-11-25T22:14:26.788Z,97893.72
2023-11-25T22:16:53.900Z,97883.84
2023-11-25T22:19:21.234Z,97898.69
2023-11-25T22:21:48.284Z,97900.97
2023-11-25T22:24:19.119Z,97899.59
2023-11-25T22:26:57.395Z,97909.50
2023-11-25T22:29:24.594Z,97907.94
2023-11-25T22:31:52.410Z,97954.72
2023-11-25T22:34:20.276Z,97937.09
2023-11-25T22:36:47.750Z,97930.34
2023-11-25T22:39:14.998Z,97935.63
2023-11-25T22:41:42.115Z,97908.94
2023-11-25T22:44:09.696Z,97894.47
2023-11-25T22:46:40.201Z,97847.63
2023-11-25T22:49:09.010Z,97789.19
2023-11-25T22:51:36.532Z,97764.63
2023-11-25T22:54:04.788Z,97791.50
2023-11-25T22:56:31.814Z,97810.19
2023-11-25T22:58:58.937Z,97819.81
2023-11-25T23:01:29.301Z,97839.34
2023-11-25T23:03:56.704Z,97864.06
2023-11-25T23:06:24.867Z,97883.53
2023-11-25T23:08:53.796Z,97925.22
2023-11-25T23:11:21.286Z,97906.66
2023-11-25T23:13:48.461Z,97922.50
2023-11-25T23:16:16.900Z,97933.44
2023-11-25T23:18:44.101Z,97920.38
2023-11-25T23:21:11.166Z,97924.03
2023-11-25T23:23:43.591Z,97939.13
2023-11-25T23:26:16.228Z,97956.84
2023-11-25T23:28:43.752Z,97972.66
2023-11-25T23:31:10.883Z,97999.63
2023-11-25T23:33:38.021Z,97991.13
2023-11-25T23:36:05.495Z,98016.56
2023-11-25T23:38:33.161Z,98001.97
2023-11-25T23:41:01.915Z,98058.31
2023-11-25T23:43:30.019Z,98053.56
2023-11-25T23:45:57.772Z,98046.97
2023-11-25T23:48:25.135Z,98033.19
2023-11-25T23:50:52.683Z,98060.16
2023-11-25T23:53:19.870Z,98040.53
2023-11-25T23:55:46.988Z,98052.06
2023-11-25T23:58:14.631Z,98060.81
